createdAt,value
2022-12-17T00:00:29.459Z,28.45
2022-12-17T00:03:19.139Z,28.23
2022-12-17T00:06:05.217Z,26.35
2022-12-17T00:08:50.752Z,26.75
2022-12-17T00:11:37.216Z,27.30
2022-12-17T00:14:22.490Z,25.73
2022-12-17T00:17:08.053Z,25.10
2022-12-17T00:19:53.319Z,25.98
2022-12-17T00:22:42.001Z,26.85
2022-12-17T00:25:28.343Z,24.42
2022-12-17T00:28:13.650Z,24.73
2022-12-17T00:30:59.036Z,23.80
2022-12-17T00:33:44.510Z,24.45
2022-12-17T00:36:31.503Z,25.75
2022-12-17T00:39:18.505Z,25.65
2022-12-17T00:42:04.065Z,24.00
2022-12-17T00:44:49.272Z,26.15
2022-12-17T00:47:34.927Z,23.30
2022-12-17T00:50:21.133Z,26.88
2022-12-17T00:53:10.761Z,26.13
2022-12-17T00:55:56.210Z,25.15
2022-12-17T00:58:42.332Z,25.52
2022-12-17T01:01:28.623Z,26.52
2022-12-17T01:04:13.912Z,26.73
2022-12-17T01:07:00.167Z,26.10
2022-12-17T01:09:46.659Z,27.15
2022-12-17T01:12:32.067Z,27.25
2022-12-17T01:15:17.620Z,27.20
2022-12-17T01:18:03.148Z,24.45
2022-12-17T01:20:48.882Z,23.45
2022-12-17T01:23:34.661Z,24.35
2022-12-17T01:26:20.124Z,24.98
2022-12-17T01:29:05.605Z,23.85
2022-12-17T01:31:51.944Z,23.90
2022-12-17T01:34:37.574Z,23.75
2022-12-17T01:37:23.313Z,21.73
2022-12-17T01:40:08.924Z,19.35
2022-12-17T01:43:02.248Z,19.83
2022-12-17T01:46:01.966Z,18.77
2022-12-17T01:49:03.179Z,20.67
2022-12-17T01:51:49.947Z,18.52
2022-12-17T01:54:37.263Z,17.15
2022-12-17T01:57:26.552Z,17.30
2022-12-17T02:00:32.381Z,16.38
2022-12-17T02:03:19.287Z,16.83
2022-12-17T02:06:22.830Z,16.10
2022-12-17T02:09:34.431Z,17.05
2022-12-17T02:12:35.906Z,15.40
2022-12-17T02:15:40.198Z,15.32
2022-12-17T02:18:39.657Z,16.13
2022-12-17T02:21:33.294Z,14.52
2022-12-17T02:24:46.768Z,12.23
2022-12-17T02:27:33.966Z,16.27
2022-12-17T02:30:23.555Z,17.05
2022-12-17T02:33:11.689Z,17.20
2022-12-17T02:36:12.447Z,16.13
2022-12-17T02:39:00.599Z,16.25
2022-12-17T02:41:52.831Z,15.70
2022-12-17T02:44:40.297Z,15.57
2022-12-17T02:47:28.273Z,15.38
2022-12-17T02:50:13.988Z,14.90
2022-12-17T02:53:04.123Z,16.00
2022-12-17T02:55:50.065Z,15.98
2022-12-17T02:58:36.845Z,14.20
2022-12-17T03:01:22.602Z,15.27
2022-12-17T03:04:08.292Z,14.18
2022-12-17T03:06:53.596Z,13.65
2022-12-17T03:09:38.824Z,14.85
2022-12-17T03:12:24.378Z,13.20
2022-12-17T03:15:10.054Z,13.15
2022-12-17T03:17:58.430Z,13.27
2022-12-17T03:20:43.930Z,13.35
2022-12-17T03:23:30.974Z,12.48
2022-12-17T03:26:21.098Z,13.80
2022-12-17T03:29:07.155Z,12.40
2022-12-17T03:31:53.111Z,13.43
2022-12-17T03:34:38.428Z,13.75
2022-12-17T03:37:23.867Z,13.60
2022-12-17T03:40:10.096Z,12.77
2022-12-17T03:42:55.648Z,11.95
2022-12-17T03:45:41.302Z,13.02
2022-12-17T03:48:30.256Z,13.70
2022-12-17T03:51:16.488Z,11.57
2022-12-17T03:54:02.441Z,12.63
2022-12-17T03:56:48.398Z,12.18
2022-12-17T03:59:34.028Z,12.73
2022-12-17T04:02:20.457Z,11.40
2022-12-17T04:05:06.138Z,11.75
2022-12-17T04:07:51.744Z,11.55
2022-12-17T04:10:37.169Z,9.93
2022-12-17T04:13:23.112Z,11.13
2022-12-17T04:16:09.705Z,10.65
2022-12-17T04:18:55.117Z,11.05
2022-12-17T04:21:41.334Z,10.98
2022-12-17T04:24:26.846Z,9.57
2022-12-17T04:27:12.340Z,10.82
2022-12-17T04:29:57.955Z,10.65
2022-12-17T04:32:43.607Z,10.65
2022-12-17T04:35:29.236Z,10.23
2022-12-17T04:38:14.794Z,10.85
2022-12-17T04:41:00.134Z,11.10
2022-12-17T04:43:45.679Z,10.48
2022-12-17T04:46:32.488Z,10.40
2022-12-17T04:49:17.912Z,10.70
2022-12-17T04:52:03.165Z,10.20
2022-12-17T04:54:48.313Z,9.95
2022-12-17T04:57:33.740Z,9.60
2022-12-17T05:00:20.771Z,9.60
2022-12-17T05:03:06.166Z,9.65
2022-12-17T05:05:51.597Z,10.52
2022-12-17T05:08:41.368Z,9.25
2022-12-17T05:11:26.951Z,9.90
2022-12-17T05:14:12.508Z,10.38
2022-12-17T05:16:59.172Z,10.77
2022-12-17T05:19:44.633Z,9.70
2022-12-17T05:22:29.929Z,9.93
2022-12-17T05:25:15.319Z,10.43
2022-12-17T05:28:00.958Z,10.23
2022-12-17T05:30:46.105Z,11.00
2022-12-17T05:33:31.375Z,11.80
2022-12-17T05:36:19.466Z,12.50
2022-12-17T05:39:06.472Z,12.40
2022-12-17T05:41:51.964Z,12.63
2022-12-17T05:44:37.321Z,12.15
2022-12-17T05:47:22.597Z,11.75
2022-12-17T05:50:08.401Z,10.80
2022-12-17T05:52:53.573Z,11.13
2022-12-17T05:55:39.011Z,9.90
2022-12-17T05:58:27.947Z,9.55
2022-12-17T06:01:17.573Z,8.63
2022-12-17T06:04:03.051Z,9.98
2022-12-17T06:06:48.781Z,9.40
2022-12-17T06:09:34.521Z,9.07
2022-12-17T06:12:20.688Z,10.38
2022-12-17T06:15:06.303Z,10.63
2022-12-17T06:17:51.739Z,10.18
2022-12-17T06:20:37.353Z,12.35
2022-12-17T06:23:25.480Z,10.77
2022-12-17T06:26:15.199Z,11.18
2022-12-17T06:29:02.564Z,10.20
2022-12-17T06:31:52.568Z,10.10
2022-12-17T06:34:37.871Z,10.52
2022-12-17T06:37:23.249Z,9.88
2022-12-17T06:40:08.856Z,10.90
2022-12-17T06:43:14.199Z,9.82
2022-12-17T06:45:59.751Z,9.73
2022-12-17T06:48:45.409Z,11.00
2022-12-17T06:51:44.661Z,10.88
2022-12-17T06:54:30.449Z,12.52
2022-12-17T06:57:15.758Z,12.18
2022-12-17T07:00:01.768Z,10.63
2022-12-17T07:03:04.078Z,11.00
2022-12-17T07:05:49.416Z,9.35
2022-12-17T07:08:35.027Z,9.70
2022-12-17T07:11:21.330Z,9.32
2022-12-17T07:14:06.560Z,10.30
2022-12-17T07:16:51.928Z,8.05
2022-12-17T07:19:37.447Z,8.15
2022-12-17T07:22:23.108Z,9.15
2022-12-17T07:25:08.444Z,9.30
2022-12-17T07:27:54.016Z,8.00
2022-12-17T07:30:39.474Z,8.88
2022-12-17T07:33:27.896Z,7.65
2022-12-17T07:36:14.296Z,8.98
2022-12-17T07:39:00.775Z,7.97
2022-12-17T07:41:46.083Z,8.82
2022-12-17T07:44:31.601Z,8.82
2022-12-17T07:47:17.334Z,9.77
2022-12-17T07:50:02.629Z,10.20
2022-12-17T07:52:48.201Z,10.07
2022-12-17T07:55:33.894Z,11.38
2022-12-17T07:58:21.411Z,11.20
2022-12-17T08:01:06.760Z,10.23
2022-12-17T08:03:52.091Z,8.90
2022-12-17T08:06:37.439Z,10.75
2022-12-17T08:09:23.692Z,10.15
2022-12-17T08:12:13.647Z,9.27
2022-12-17T08:14:59.275Z,9.20
2022-12-17T08:17:44.728Z,11.07
2022-12-17T08:20:30.582Z,10.68
2022-12-17T08:23:24.956Z,10.45
2022-12-17T08:26:11.813Z,9.52
2022-12-17T08:28:57.326Z,10.70
2022-12-17T08:31:59.887Z,10.13
2022-12-17T08:34:47.145Z,9.45
2022-12-17T08:37:32.983Z,10.32
2022-12-17T08:40:18.289Z,10.68
2022-12-17T08:43:03.870Z,10.35
2022-12-17T08:45:53.366Z,9.50
2022-12-17T08:48:39.039Z,10.07
2022-12-17T08:51:24.536Z,11.75
2022-12-17T08:54:11.180Z,10.75
2022-12-17T08:56:56.734Z,10.90
2022-12-17T08:59:42.743Z,11.13
2022-12-17T09:02:30.088Z,10.68
2022-12-17T09:05:15.484Z,10.15
2022-12-17T09:08:00.761Z,11.77
2022-12-17T09:10:46.277Z,10.18
2022-12-17T09:13:31.849Z,10.20
2022-12-17T09:16:17.632Z,11.00
2022-12-17T09:19:02.961Z,10.63
2022-12-17T09:21:49.856Z,9.80
2022-12-17T09:24:35.299Z,10.15
2022-12-17T09:27:21.003Z,10.48
2022-12-17T09:30:08.197Z,10.15
2022-12-17T09:32:56.598Z,10.27
2022-12-17T09:35:42.234Z,11.95
2022-12-17T09:38:36.157Z,11.05
2022-12-17T09:41:45.016Z,10.23
2022-12-17T09:45:03.122Z,10.82
2022-12-17T09:48:13.582Z,8.50
2022-12-17T09:50:58.876Z,8.63
2022-12-17T09:54:02.089Z,8.05
2022-12-17T09:56:50.004Z,8.82
2022-12-17T09:59:55.586Z,7.75
2022-12-17T10:02:46.704Z,9.15
2022-12-17T10:05:43.148Z,8.80
2022-12-17T10:08:33.034Z,9.38
2022-12-17T10:11:43.037Z,8.80
2022-12-17T10:14:35.990Z,9.68
2022-12-17T10:17:22.261Z,9.52
2022-12-17T10:20:13.362Z,10.10
2022-12-17T10:23:07.644Z,9.60
2022-12-17T10:25:56.185Z,10.02
2022-12-17T10:28:43.449Z,10.27
2022-12-17T10:31:29.984Z,10.40
2022-12-17T10:34:16.351Z,10.60
2022-12-17T10:37:10.389Z,10.43
2022-12-17T10:39:57.106Z,11.00
2022-12-17T10:42:56.931Z,9.73
2022-12-17T10:45:48.688Z,11.05
2022-12-17T10:48:48.644Z,10.95
2022-12-17T10:51:40.699Z,9.10
2022-12-17T10:54:42.628Z,9.60
2022-12-17T10:57:51.215Z,10.48
2022-12-17T11:00:36.564Z,9.40
2022-12-17T11:03:23.770Z,9.55
2022-12-17T11:06:13.618Z,11.80
2022-12-17T11:09:00.236Z,11.82
2022-12-17T11:11:45.999Z,11.02
2022-12-17T11:14:33.219Z,10.40
2022-12-17T11:17:23.748Z,9.60
2022-12-17T11:20:17.818Z,10.38
2022-12-17T11:23:17.004Z,11.75
2022-12-17T11:26:08.883Z,11.90
2022-12-17T11:29:11.722Z,11.57
2022-12-17T11:32:21.812Z,11.73
2022-12-17T11:35:28.338Z,11.52
2022-12-17T11:38:25.666Z,12.27
2022-12-17T11:41:17.448Z,12.15
2022-12-17T11:44:11.005Z,11.95
2022-12-17T11:47:20.668Z,11.77
2022-12-17T11:50:25.307Z,13.75
2022-12-17T11:53:28.228Z,12.80
2022-12-17T11:56:28.327Z,12.90
2022-12-17T11:59:28.218Z,13.20
2022-12-17T12:02:36.471Z,13.98
2022-12-17T12:06:11.646Z,14.00
2022-12-17T12:09:28.085Z,14.70
2022-12-17T12:12:21.841Z,14.35
2022-12-17T12:15:07.076Z,11.63
2022-12-17T12:18:07.406Z,13.40
2022-12-17T12:21:18.259Z,14.82
2022-12-17T12:24:36.113Z,14.10
2022-12-17T12:27:36.580Z,15.55
2022-12-17T12:30:36.775Z,14.75
2022-12-17T12:33:46.012Z,15.40
2022-12-17T12:36:35.721Z,14.68
2022-12-17T12:39:21.437Z,14.57
2022-12-17T12:42:22.390Z,14.68
2022-12-17T12:45:49.381Z,14.23
2022-12-17T12:49:13.110Z,14.32
2022-12-17T12:51:58.545Z,14.35
2022-12-17T12:54:49.172Z,14.90
2022-12-17T12:58:07.237Z,15.07
2022-12-17T13:01:12.888Z,15.88
2022-12-17T13:04:11.284Z,14.73
2022-12-17T13:06:48.964Z,14.70
2022-12-17T13:09:15.748Z,14.05
2022-12-17T13:11:53.675Z,16.27
2022-12-17T13:14:26.817Z,15.18
2022-12-17T13:17:14.546Z,15.52
2022-12-17T13:19:43.730Z,14.98
2022-12-17T13:22:23.407Z,15.27
2022-12-17T13:25:30.675Z,18.33
2022-12-17T13:27:58.489Z,17.55
2022-12-17T13:31:00.458Z,16.38
2022-12-17T13:33:46.304Z,15.80
2022-12-17T13:36:46.120Z,17.33
2022-12-17T13:39:36.473Z,16.58
2022-12-17T13:42:04.195Z,16.63
2022-12-17T13:44:46.704Z,15.32
2022-12-17T13:47:26.344Z,17.08
2022-12-17T13:50:31.688Z,16.23
2022-12-17T13:52:45.638Z,15.60
2022-12-17T13:55:25.474Z,17.23
2022-12-17T13:57:53.510Z,15.05
2022-12-17T14:00:30.445Z,15.52
2022-12-17T14:02:58.556Z,16.52
2022-12-17T14:05:33.321Z,16.80
2022-12-17T14:08:02.901Z,19.27
2022-12-17T14:10:31.600Z,16.55
2022-12-17T14:13:13.341Z,16.48
2022-12-17T14:15:49.060Z,19.98
2022-12-17T14:18:20.717Z,16.73
2022-12-17T14:20:49.509Z,15.57
2022-12-17T14:23:36.629Z,16.20
2022-12-17T14:26:03.464Z,15.40
2022-12-17T14:28:36.142Z,17.05
2022-12-17T14:34:13.343Z,17.80
2022-12-17T14:39:23.946Z,15.50
2022-12-17T14:42:09.771Z,17.08
2022-12-17T14:44:48.137Z,17.05
2022-12-17T14:47:24.984Z,17.45
2022-12-17T14:50:02.105Z,16.98
2022-12-17T14:52:58.735Z,15.63
2022-12-17T14:55:57.902Z,16.90
2022-12-17T14:58:27.767Z,15.10
2022-12-17T15:01:07.156Z,15.27
2022-12-17T15:03:39.980Z,16.17
2022-12-17T15:06:09.675Z,14.75
2022-12-17T15:08:49.347Z,15.75
2022-12-17T15:11:19.467Z,17.02
2022-12-17T15:13:50.228Z,16.17
2022-12-17T15:16:20.068Z,21.83
2022-12-17T15:18:48.413Z,18.08
2022-12-17T15:21:16.749Z,15.40
2022-12-17T15:23:44.480Z,15.73
2022-12-17T15:26:11.801Z,16.23
2022-12-17T15:28:38.818Z,22.00
2022-12-17T15:31:05.908Z,19.23
2022-12-17T15:33:32.805Z,18.13
2022-12-17T15:36:01.027Z,20.58
2022-12-17T15:38:27.775Z,19.63
2022-12-17T15:40:55.610Z,18.05
2022-12-17T15:43:22.364Z,18.40
2022-12-17T15:45:52.033Z,18.52
2022-12-17T15:48:23.415Z,19.45
2022-12-17T15:50:50.289Z,18.15
2022-12-17T15:53:17.389Z,19.83
2022-12-17T15:55:45.299Z,19.08
2022-12-17T15:58:12.200Z,19.85
2022-12-17T16:00:39.006Z,18.13
2022-12-17T16:03:07.268Z,17.30
2022-12-17T16:05:34.050Z,18.88
2022-12-17T16:08:02.580Z,17.70
2022-12-17T16:10:30.150Z,19.83
2022-12-17T16:12:57.081Z,20.05
2022-12-17T16:15:23.889Z,18.90
2022-12-17T16:17:50.844Z,20.05
2022-12-17T16:20:18.673Z,17.83
2022-12-17T16:22:45.531Z,18.83
2022-12-17T16:25:12.542Z,20.35
2022-12-17T16:27:39.683Z,19.10
2022-12-17T16:30:07.562Z,18.42
2022-12-17T16:32:36.638Z,18.15
2022-12-17T16:35:05.828Z,19.50
2022-12-17T16:37:32.607Z,21.38
2022-12-17T16:40:00.341Z,21.60
2022-12-17T16:42:27.471Z,19.50
2022-12-17T16:44:54.191Z,19.20
2022-12-17T16:47:20.912Z,19.52
2022-12-17T16:49:50.611Z,20.70
2022-12-17T16:52:17.425Z,18.60
2022-12-17T16:54:44.132Z,20.73
2022-12-17T16:57:10.845Z,19.42
2022-12-17T16:59:39.738Z,19.95
2022-12-17T17:02:13.500Z,19.75
2022-12-17T17:07:07.054Z,17.77
2022-12-17T17:09:33.890Z,17.15
2022-12-17T17:12:01.945Z,18.08
2022-12-17T17:14:28.684Z,17.15
2022-12-17T17:16:55.352Z,18.75
2022-12-17T17:19:22.685Z,18.75
2022-12-17T17:21:52.634Z,18.42
2022-12-17T17:24:22.317Z,17.45
2022-12-17T17:26:51.477Z,18.35
2022-12-17T17:29:18.583Z,18.55
2022-12-17T17:34:32.165Z,19.20
2022-12-17T17:36:58.856Z,20.35
2022-12-17T17:39:25.918Z,21.92
2022-12-17T17:41:54.029Z,25.05
2022-12-17T17:44:21.128Z,21.58
2022-12-17T17:46:47.875Z,20.42
2022-12-17T17:49:15.136Z,18.65
2022-12-17T17:54:30.238Z,19.42
2022-12-17T17:56:57.053Z,19.63
2022-12-17T17:59:29.595Z,18.52
2022-12-17T18:02:00.441Z,18.60
2022-12-17T18:04:27.785Z,19.42
2022-12-17T18:09:42.459Z,18.38
2022-12-17T18:12:27.801Z,18.42
2022-12-17T18:17:41.537Z,19.20
2022-12-17T18:20:09.779Z,18.77
2022-12-17T18:22:36.974Z,18.02
2022-12-17T18:25:05.169Z,20.00
2022-12-17T18:27:31.857Z,19.65
2022-12-17T18:29:58.838Z,20.13
2022-12-17T18:32:27.053Z,17.73
2022-12-17T18:34:53.857Z,19.00
2022-12-17T18:37:20.671Z,19.17
2022-12-17T18:39:48.379Z,20.25
2022-12-17T18:42:33.638Z,18.92
2022-12-17T18:45:00.439Z,19.25
2022-12-17T18:47:28.361Z,20.40
2022-12-17T18:49:56.351Z,22.33
2022-12-17T18:52:24.373Z,18.75
2022-12-17T18:54:51.179Z,21.35
2022-12-17T18:57:17.949Z,22.63
2022-12-17T18:59:44.622Z,20.45
2022-12-17T19:02:14.813Z,21.20
2022-12-17T19:04:42.292Z,20.92
2022-12-17T19:07:09.253Z,20.75
2022-12-17T19:09:36.630Z,21.52
2022-12-17T19:12:07.864Z,21.17
2022-12-17T19:14:35.084Z,19.73
2022-12-17T19:17:02.214Z,21.90
2022-12-17T19:19:29.269Z,23.13
2022-12-17T19:21:56.932Z,20.15
2022-12-17T19:24:24.051Z,21.40
2022-12-17T19:26:51.810Z,19.45
2022-12-17T19:29:20.475Z,21.40
2022-12-17T19:31:48.094Z,20.40
2022-12-17T19:34:17.953Z,21.60
2022-12-17T19:36:45.593Z,23.45
2022-12-17T19:39:18.189Z,25.50
2022-12-17T19:41:45.165Z,24.58
2022-12-17T19:44:14.456Z,23.83
2022-12-17T19:46:41.724Z,26.05
2022-12-17T19:49:11.249Z,24.75
2022-12-17T19:51:40.410Z,24.83
2022-12-17T19:54:09.254Z,23.77
2022-12-17T19:56:38.078Z,20.83
2022-12-17T19:59:07.506Z,21.15
2022-12-17T20:01:41.534Z,23.92
2022-12-17T20:04:10.392Z,22.45
2022-12-17T20:06:37.064Z,20.60
2022-12-17T20:09:07.355Z,20.88
2022-12-17T20:11:35.380Z,20.42
2022-12-17T20:14:09.066Z,18.85
2022-12-17T20:16:39.323Z,22.20
2022-12-17T20:19:08.130Z,22.05
2022-12-17T20:21:35.052Z,21.35
2022-12-17T20:24:02.059Z,22.45
2022-12-17T20:26:28.829Z,22.15
2022-12-17T20:28:55.919Z,21.67
2022-12-17T20:31:22.825Z,20.95
2022-12-17T20:33:49.603Z,20.30
2022-12-17T20:36:18.353Z,19.75
2022-12-17T20:38:45.604Z,20.52
2022-12-17T20:41:18.693Z,18.33
2022-12-17T20:43:46.256Z,19.75
2022-12-17T20:46:13.655Z,18.45
2022-12-17T20:48:43.869Z,18.50
2022-12-17T20:51:22.833Z,18.80
2022-12-17T20:53:50.023Z,18.48
2022-12-17T20:56:20.683Z,19.25
2022-12-17T20:58:47.671Z,17.85
2022-12-17T21:01:21.150Z,17.90
2022-12-17T21:03:50.601Z,18.73
2022-12-17T21:06:18.577Z,18.10
2022-12-17T21:08:50.209Z,19.00
2022-12-17T21:11:20.518Z,18.42
2022-12-17T21:13:47.441Z,18.30
2022-12-17T21:16:17.993Z,18.23
2022-12-17T21:18:45.269Z,18.25
2022-12-17T21:21:16.358Z,17.20
2022-12-17T21:23:48.263Z,17.52
2022-12-17T21:26:22.535Z,17.95
2022-12-17T21:28:52.399Z,17.25
2022-12-17T21:31:25.005Z,17.60
2022-12-17T21:33:54.763Z,18.33
2022-12-17T21:36:22.501Z,19.55
2022-12-17T21:38:50.185Z,18.63
2022-12-17T21:41:20.329Z,18.42
2022-12-17T21:43:47.077Z,17.95
2022-12-17T21:46:14.307Z,17.10
2022-12-17T21:48:42.863Z,18.05
2022-12-17T21:51:12.238Z,16.15
2022-12-17T21:53:42.775Z,18.02
2022-12-17T21:56:15.607Z,17.98
2022-12-17T21:58:44.233Z,17.85
2022-12-17T22:01:24.009Z,18.00
2022-12-17T22:03:53.818Z,17.02
2022-12-17T22:06:24.009Z,15.77
2022-12-17T22:09:03.122Z,17.88
2022-12-17T22:11:43.271Z,16.90
2022-12-17T22:14:18.819Z,17.70
2022-12-17T22:16:49.640Z,18.02
2022-12-17T22:19:23.992Z,18.02
2022-12-17T22:21:53.796Z,18.20
2022-12-17T22:24:26.691Z,17.60
2022-12-17T22:27:00.327Z,18.83
2022-12-17T22:29:49.269Z,17.40
2022-12-17T22:32:34.711Z,16.63
2022-12-17T22:36:47.909Z,17.55
2022-12-17T22:41:00.109Z,18.08
2022-12-17T22:44:20.073Z,14.30
2022-12-17T22:44:45.005Z,16.52
2022-12-17T22:46:19.490Z,15.70
2022-12-17T22:48:46.824Z,16.27
2022-12-17T22:51:19.233Z,16.73
2022-12-17T22:54:04.782Z,18.58
2022-12-17T22:56:56.969Z,19.00
2022-12-17T22:59:24.373Z,17.70
2022-12-17T23:01:51.173Z,16.25
2022-12-17T23:04:18.114Z,19.10
2022-12-17T23:06:45.945Z,18.20
2022-12-17T23:09:16.108Z,19.17
2022-12-17T23:11:42.819Z,18.77
2022-12-17T23:14:11.089Z,15.43
2022-12-17T23:16:38.807Z,17.65
2022-12-17T23:19:07.046Z,17.58
2022-12-17T23:21:34.467Z,18.52
2022-12-17T23:24:01.280Z,17.73
2022-12-17T23:26:36.380Z,17.70
2022-12-17T23:29:08.143Z,16.83
2022-12-17T23:31:38.362Z,17.52
2022-12-17T23:34:05.297Z,18.08
2022-12-17T23:36:32.820Z,17.45
2022-12-17T23:38:59.890Z,16.98
2022-12-17T23:41:29.624Z,14.43
2022-12-17T23:43:56.830Z,17.42
2022-12-17T23:46:25.191Z,16.60
2022-12-17T23:48:52.058Z,16.08
2022-12-17T23:51:21.726Z,17.65
2022-12-17T23:53:48.820Z,15.65
2022-12-17T23:56:21.992Z,15.50
2022-12-17T23:58:53.159Z,16.05
